Pine Level, Alabama
Current Conditions -  °F | °C
As of 2:53 PM on Wednesday 17 Dec 2014 (Local Time) from KTOI Reporting Station
Clear Clear  
Wind Chill: 59°   Ceiling: Unl
Heat Index: 59°   Visibility: 10mi
Dew Point: 39°   Wind: 7mph
Humidity: 48%   Direction: 290°WNW
Pressure: 30.15"   Gusts: NA
Location:  32.07°N, 86.06°W
Report Text: KTOI 172053Z AUTO 29006KT 10SM CLR 15/04 A3015 RMK AO2 SLP209 T01500039 56022
Loading
Personal Weather Stations






























Interactive Weather Map New forecast layout! Learn more

10-Day Weather Forecast

Advertisements
Track Severe Weather on mobile